Alley Springs, Missouri
Current Conditions -  °F | °C
As of 2:53 AM on Monday 22 Dec 2014 (Local Time) from KUNO Reporting Station
Overcast Overcast  
Wind Chill: 37°   Ceiling: 2000
Heat Index: 42°   Visibility: 10mi
Dew Point: 34°   Wind: 9mph
Humidity: 73%   Direction: 120°ESE
Pressure: 29.78"   Gusts: NA
Location:  37.1833°N, 91.4819°W
Report Text: KUNO 220853Z AUTO 12008KT 10SM OVC020 06/01 A2978 RMK AO2 SLP088 T00560011 58029 $
Loading
Personal Weather Stations






























Interactive Weather Map New forecast layout! Learn more

10-Day Weather Forecast

Advertisements
Track Severe Weather on mobile